sensor_id;sensor_type;location;lat;lon;timestamp;P1;durP1;ratioP1;P2;durP2;ratioP2
73100;SDS011;61288;53.446;-2.266;2022-07-06T00:00:42;7.28;;;2.90;;
73100;SDS011;61288;53.446;-2.266;2022-07-06T00:03:08;7.45;;;2.90;;
73100;SDS011;61288;53.446;-2.266;2022-07-06T00:05:40;9.00;;;2.78;;
73100;SDS011;61288;53.446;-2.266;2022-07-06T00:08:06;11.68;;;2.92;;
73100;SDS011;61288;53.446;-2.266;2022-07-06T00:10:31;6.85;;;2.90;;
73100;SDS011;61288;53.446;-2.266;2022-07-06T00:12:57;8.00;;;3.00;;
73100;SDS011;61288;53.446;-2.266;2022-07-06T00:15:23;9.25;;;3.20;;
73100;SDS011;61288;53.446;-2.266;2022-07-06T00:17:50;8.88;;;3.38;;
73100;SDS011;61288;53.446;-2.266;2022-07-06T00:20:15;7.93;;;2.80;;
73100;SDS011;61288;53.446;-2.266;2022-07-06T00:22:44;10.52;;;3.47;;
73100;SDS011;61288;53.446;-2.266;2022-07-06T00:25:09;9.45;;;3.70;;
73100;SDS011;61288;53.446;-2.266;2022-07-06T00:27:36;11.38;;;4.28;;
73100;SDS011;61288;53.446;-2.266;2022-07-06T00:30:02;9.35;;;3.55;;
73100;SDS011;61288;53.446;-2.266;2022-07-06T00:32:29;8.07;;;3.22;;
73100;SDS011;61288;53.446;-2.266;2022-07-06T00:34:58;10.38;;;4.47;;
73100;SDS011;61288;53.446;-2.266;2022-07-06T00:37:24;10.00;;;4.38;;
73100;SDS011;61288;53.446;-2.266;2022-07-06T00:39:50;9.40;;;3.80;;
73100;SDS011;61288;53.446;-2.266;2022-07-06T00:42:16;9.68;;;4.40;;
73100;SDS011;61288;53.446;-2.266;2022-07-06T00:44:42;10.45;;;4.90;;
73100;SDS011;61288;53.446;-2.266;2022-07-06T00:47:11;13.02;;;5.93;;
73100;SDS011;61288;53.446;-2.266;2022-07-06T00:49:37;9.77;;;4.43;;
73100;SDS011;61288;53.446;-2.266;2022-07-06T00:52:28;10.35;;;5.03;;
73100;SDS011;61288;53.446;-2.266;2022-07-06T00:54:54;11.18;;;5.85;;
73100;SDS011;61288;53.446;-2.266;2022-07-06T00:57:24;11.32;;;5.45;;
73100;SDS011;61288;53.446;-2.266;2022-07-06T00:59:49;13.52;;;5.95;;
73100;SDS011;61288;53.446;-2.266;2022-07-06T01:02:15;11.73;;;5.32;;
73100;SDS011;61288;53.446;-2.266;2022-07-06T01:04:47;12.63;;;5.82;;
73100;SDS011;61288;53.446;-2.266;2022-07-06T01:07:13;12.82;;;5.50;;
73100;SDS011;61288;53.446;-2.266;2022-07-06T01:09:39;13.95;;;6.07;;
73100;SDS011;61288;53.446;-2.266;2022-07-06T01:12:05;12.90;;;6.28;;
73100;SDS011;61288;53.446;-2.266;2022-07-06T01:14:31;14.55;;;6.18;;
73100;SDS011;61288;53.446;-2.266;2022-07-06T01:16:58;14.73;;;6.82;;
73100;SDS011;61288;53.446;-2.266;2022-07-06T01:19:28;13.70;;;6.32;;
73100;SDS011;61288;53.446;-2.266;2022-07-06T01:21:54;14.88;;;6.90;;
73100;SDS011;61288;53.446;-2.266;2022-07-06T01:24:20;14.38;;;6.55;;
73100;SDS011;61288;53.446;-2.266;2022-07-06T01:26:45;14.88;;;6.93;;
73100;SDS011;61288;53.446;-2.266;2022-07-06T01:29:11;15.07;;;6.97;;
73100;SDS011;61288;53.446;-2.266;2022-07-06T01:31:44;16.75;;;6.43;;
73100;SDS011;61288;53.446;-2.266;2022-07-06T01:34:13;15.50;;;6.68;;
73100;SDS011;61288;53.446;-2.266;2022-07-06T01:36:41;13.88;;;6.28;;
73100;SDS011;61288;53.446;-2.266;2022-07-06T01:39:07;14.50;;;5.50;;
73100;SDS011;61288;53.446;-2.266;2022-07-06T01:41:33;13.07;;;5.75;;
73100;SDS011;61288;53.446;-2.266;2022-07-06T01:44:00;12.57;;;5.78;;
73100;SDS011;61288;53.446;-2.266;2022-07-06T01:46:27;16.02;;;5.60;;
73100;SDS011;61288;53.446;-2.266;2022-07-06T01:48:52;13.23;;;5.20;;
73100;SDS011;61288;53.446;-2.266;2022-07-06T01:51:21;13.55;;;5.93;;
73100;SDS011;61288;53.446;-2.266;2022-07-06T01:53:46;11.30;;;4.70;;
73100;SDS011;61288;53.446;-2.266;2022-07-06T01:56:13;12.73;;;5.00;;
73100;SDS011;61288;53.446;-2.266;2022-07-06T01:58:39;10.88;;;4.75;;
73100;SDS011;61288;53.446;-2.266;2022-07-06T02:01:08;11.07;;;4.88;;
73100;SDS011;61288;53.446;-2.266;2022-07-06T02:03:36;12.10;;;5.07;;
73100;SDS011;61288;53.446;-2.266;2022-07-06T02:06:02;9.13;;;3.92;;
73100;SDS011;61288;53.446;-2.266;2022-07-06T02:08:29;9.32;;;3.65;;
73100;SDS011;61288;53.446;-2.266;2022-07-06T02:10:55;10.65;;;3.60;;
73100;SDS011;61288;53.446;-2.266;2022-07-06T02:13:21;10.23;;;3.13;;
73100;SDS011;61288;53.446;-2.266;2022-07-06T02:15:46;10.02;;;3.67;;
73100;SDS011;61288;53.446;-2.266;2022-07-06T02:18:12;9.60;;;3.30;;
73100;SDS011;61288;53.446;-2.266;2022-07-06T02:20:37;7.97;;;3.20;;
73100;SDS011;61288;53.446;-2.266;2022-07-06T02:23:04;10.40;;;3.53;;
73100;SDS011;61288;53.446;-2.266;2022-07-06T02:25:30;8.82;;;2.97;;
73100;SDS011;61288;53.446;-2.266;2022-07-06T02:27:57;9.90;;;3.20;;
73100;SDS011;61288;53.446;-2.266;2022-07-06T02:30:26;8.63;;;3.15;;
73100;SDS011;61288;53.446;-2.266;2022-07-06T02:32:52;8.18;;;3.22;;
73100;SDS011;61288;53.446;-2.266;2022-07-06T02:35:21;8.15;;;3.10;;
73100;SDS011;61288;53.446;-2.266;2022-07-06T02:37:47;9.20;;;3.20;;
73100;SDS011;61288;53.446;-2.266;2022-07-06T02:40:12;8.55;;;3.22;;
73100;SDS011;61288;53.446;-2.266;2022-07-06T02:42:41;10.00;;;3.30;;
73100;SDS011;61288;53.446;-2.266;2022-07-06T02:45:07;11.55;;;3.65;;
73100;SDS011;61288;53.446;-2.266;2022-07-06T02:47:33;11.60;;;3.50;;
73100;SDS011;61288;53.446;-2.266;2022-07-06T02:49:59;8.07;;;2.78;;
73100;SDS011;61288;53.446;-2.266;2022-07-06T02:52:25;8.05;;;3.45;;
73100;SDS011;61288;53.446;-2.266;2022-07-06T02:54:50;10.18;;;2.97;;
73100;SDS011;61288;53.446;-2.266;2022-07-06T02:57:16;9.32;;;3.05;;
73100;SDS011;61288;53.446;-2.266;2022-07-06T02:59:42;10.05;;;3.15;;
73100;SDS011;61288;53.446;-2.266;2022-07-06T03:02:09;9.60;;;3.25;;
73100;SDS011;61288;53.446;-2.266;2022-07-06T03:04:44;9.40;;;2.90;;
73100;SDS011;61288;53.446;-2.266;2022-07-06T03:07:10;8.48;;;2.80;;
73100;SDS011;61288;53.446;-2.266;2022-07-06T03:09:36;8.10;;;2.65;;
73100;SDS011;61288;53.446;-2.266;2022-07-06T03:12:05;10.65;;;2.72;;
73100;SDS011;61288;53.446;-2.266;2022-07-06T03:14:32;9.63;;;2.58;;
73100;SDS011;61288;53.446;-2.266;2022-07-06T03:16:57;12.48;;;2.90;;
73100;SDS011;61288;53.446;-2.266;2022-07-06T03:19:23;8.88;;;2.30;;
73100;SDS011;61288;53.446;-2.266;2022-07-06T03:21:48;9.70;;;2.83;;
73100;SDS011;61288;53.446;-2.266;2022-07-06T03:24:23;9.02;;;2.47;;
73100;SDS011;61288;53.446;-2.266;2022-07-06T03:26:49;9.45;;;2.88;;
73100;SDS011;61288;53.446;-2.266;2022-07-06T03:29:15;8.10;;;2.58;;
73100;SDS011;61288;53.446;-2.266;2022-07-06T03:31:40;7.13;;;2.35;;
73100;SDS011;61288;53.446;-2.266;2022-07-06T03:34:07;11.48;;;2.95;;
73100;SDS011;61288;53.446;-2.266;2022-07-06T03:36:35;8.65;;;2.65;;
73100;SDS011;61288;53.446;-2.266;2022-07-06T03:39:01;9.77;;;2.80;;
73100;SDS011;61288;53.446;-2.266;2022-07-06T03:41:27;10.30;;;2.33;;
73100;SDS011;61288;53.446;-2.266;2022-07-06T03:43:52;13.57;;;2.47;;
73100;SDS011;61288;53.446;-2.266;2022-07-06T03:46:20;10.40;;;2.40;;
73100;SDS011;61288;53.446;-2.266;2022-07-06T03:48:50;10.35;;;2.50;;
73100;SDS011;61288;53.446;-2.266;2022-07-06T03:51:15;12.23;;;2.83;;
73100;SDS011;61288;53.446;-2.266;2022-07-06T03:53:41;9.52;;;2.55;;
73100;SDS011;61288;53.446;-2.266;2022-07-06T03:56:07;8.13;;;2.47;;
73100;SDS011;61288;53.446;-2.266;2022-07-06T03:58:51;8.40;;;2.38;;
73100;SDS011;61288;53.446;-2.266;2022-07-06T04:01:17;13.05;;;2.80;;
73100;SDS011;61288;53.446;-2.266;2022-07-06T04:03:43;7.22;;;2.40;;
73100;SDS011;61288;53.446;-2.266;2022-07-06T04:06:09;9.82;;;2.55;;
73100;SDS011;61288;53.446;-2.266;2022-07-06T04:08:35;11.65;;;2.50;;
73100;SDS011;61288;53.446;-2.266;2022-07-06T04:11:02;10.23;;;2.25;;
73100;SDS011;61288;53.446;-2.266;2022-07-06T04:13:28;8.45;;;2.30;;
73100;SDS011;61288;53.446;-2.266;2022-07-06T04:15:56;8.63;;;2.30;;
73100;SDS011;61288;53.446;-2.266;2022-07-06T04:18:22;9.43;;;2.75;;
73100;SDS011;61288;53.446;-2.266;2022-07-06T04:20:48;6.55;;;2.10;;
73100;SDS011;61288;53.446;-2.266;2022-07-06T04:23:16;9.50;;;2.28;;
73100;SDS011;61288;53.446;-2.266;2022-07-06T04:25:42;9.05;;;2.55;;
73100;SDS011;61288;53.446;-2.266;2022-07-06T04:28:08;10.35;;;2.80;;
73100;SDS011;61288;53.446;-2.266;2022-07-06T04:30:35;7.63;;;2.10;;
73100;SDS011;61288;53.446;-2.266;2022-07-06T04:33:01;7.57;;;2.08;;
73100;SDS011;61288;53.446;-2.266;2022-07-06T04:35:27;11.57;;;2.30;;
73100;SDS011;61288;53.446;-2.266;2022-07-06T04:37:54;10.52;;;2.47;;
73100;SDS011;61288;53.446;-2.266;2022-07-06T04:40:23;12.68;;;2.50;;
73100;SDS011;61288;53.446;-2.266;2022-07-06T04:42:49;12.90;;;2.20;;
73100;SDS011;61288;53.446;-2.266;2022-07-06T04:45:16;13.30;;;2.40;;
73100;SDS011;61288;53.446;-2.266;2022-07-06T04:47:41;9.38;;;2.40;;
73100;SDS011;61288;53.446;-2.266;2022-07-06T04:50:09;6.40;;;2.03;;
73100;SDS011;61288;53.446;-2.266;2022-07-06T04:52:35;9.40;;;2.40;;
73100;SDS011;61288;53.446;-2.266;2022-07-06T04:55:02;7.47;;;2.13;;
73100;SDS011;61288;53.446;-2.266;2022-07-06T04:57:30;10.85;;;2.35;;
73100;SDS011;61288;53.446;-2.266;2022-07-06T04:59:55;10.30;;;2.28;;
73100;SDS011;61288;53.446;-2.266;2022-07-06T05:02:21;10.10;;;2.50;;
73100;SDS011;61288;53.446;-2.266;2022-07-06T05:04:47;11.63;;;2.40;;
73100;SDS011;61288;53.446;-2.266;2022-07-06T05:17:34;10.10;;;2.10;;
73100;SDS011;61288;53.446;-2.266;2022-07-06T05:20:05;9.32;;;2.20;;
73100;SDS011;61288;53.446;-2.266;2022-07-06T05:22:37;11.95;;;2.17;;
73100;SDS011;61288;53.446;-2.266;2022-07-06T05:25:09;13.27;;;2.40;;
73100;SDS011;61288;53.446;-2.266;2022-07-06T05:27:38;7.45;;;2.20;;
73100;SDS011;61288;53.446;-2.266;2022-07-06T05:30:04;10.07;;;2.10;;
73100;SDS011;61288;53.446;-2.266;2022-07-06T05:32:30;9.93;;;2.33;;
73100;SDS011;61288;53.446;-2.266;2022-07-06T05:34:56;9.57;;;2.30;;
73100;SDS011;61288;53.446;-2.266;2022-07-06T05:37:22;11.27;;;2.53;;
73100;SDS011;61288;53.446;-2.266;2022-07-06T05:39:48;9.73;;;2.50;;
73100;SDS011;61288;53.446;-2.266;2022-07-06T05:42:15;9.07;;;2.47;;
73100;SDS011;61288;53.446;-2.266;2022-07-06T05:44:41;13.70;;;2.97;;
73100;SDS011;61288;53.446;-2.266;2022-07-06T05:47:18;12.35;;;2.80;;
73100;SDS011;61288;53.446;-2.266;2022-07-06T05:50:02;11.23;;;2.67;;
73100;SDS011;61288;53.446;-2.266;2022-07-06T05:52:37;9.02;;;2.38;;
73100;SDS011;61288;53.446;-2.266;2022-07-06T05:55:07;9.52;;;2.60;;
73100;SDS011;61288;53.446;-2.266;2022-07-06T05:57:37;10.35;;;2.58;;
73100;SDS011;61288;53.446;-2.266;2022-07-06T06:00:05;8.27;;;2.70;;
73100;SDS011;61288;53.446;-2.266;2022-07-06T06:02:38;11.05;;;2.83;;
73100;SDS011;61288;53.446;-2.266;2022-07-06T06:05:05;8.88;;;2.50;;
73100;SDS011;61288;53.446;-2.266;2022-07-06T06:07:39;10.75;;;3.00;;
73100;SDS011;61288;53.446;-2.266;2022-07-06T06:10:10;12.05;;;3.22;;
73100;SDS011;61288;53.446;-2.266;2022-07-06T06:12:37;8.98;;;2.80;;
73100;SDS011;61288;53.446;-2.266;2022-07-06T06:15:08;11.15;;;2.72;;
73100;SDS011;61288;53.446;-2.266;2022-07-06T06:17:37;11.93;;;3.10;;
73100;SDS011;61288;53.446;-2.266;2022-07-06T06:20:04;9.75;;;2.83;;
73100;SDS011;61288;53.446;-2.266;2022-07-06T06:22:31;10.20;;;3.10;;
73100;SDS011;61288;53.446;-2.266;2022-07-06T06:25:18;9.48;;;2.70;;
73100;SDS011;61288;53.446;-2.266;2022-07-06T06:27:46;11.50;;;3.55;;
73100;SDS011;61288;53.446;-2.266;2022-07-06T06:30:12;13.20;;;4.18;;
73100;SDS011;61288;53.446;-2.266;2022-07-06T06:32:40;15.35;;;4.57;;
73100;SDS011;61288;53.446;-2.266;2022-07-06T06:35:06;10.75;;;3.90;;
73100;SDS011;61288;53.446;-2.266;2022-07-06T06:37:33;12.98;;;4.53;;
73100;SDS011;61288;53.446;-2.266;2022-07-06T06:40:00;11.88;;;4.18;;
73100;SDS011;61288;53.446;-2.266;2022-07-06T06:42:26;10.20;;;4.03;;
73100;SDS011;61288;53.446;-2.266;2022-07-06T06:44:52;8.70;;;2.95;;
73100;SDS011;61288;53.446;-2.266;2022-07-06T06:47:19;8.55;;;3.67;;
73100;SDS011;61288;53.446;-2.266;2022-07-06T06:49:45;12.52;;;2.75;;
73100;SDS011;61288;53.446;-2.266;2022-07-06T06:52:11;13.70;;;3.05;;
73100;SDS011;61288;53.446;-2.266;2022-07-06T06:54:39;8.75;;;2.92;;
73100;SDS011;61288;53.446;-2.266;2022-07-06T06:57:06;11.77;;;3.10;;
73100;SDS011;61288;53.446;-2.266;2022-07-06T06:59:32;10.18;;;2.80;;
73100;SDS011;61288;53.446;-2.266;2022-07-06T07:01:59;11.55;;;2.97;;
73100;SDS011;61288;53.446;-2.266;2022-07-06T07:04:25;9.00;;;2.88;;
73100;SDS011;61288;53.446;-2.266;2022-07-06T07:06:51;8.25;;;2.60;;
73100;SDS011;61288;53.446;-2.266;2022-07-06T07:09:17;8.57;;;2.50;;
73100;SDS011;61288;53.446;-2.266;2022-07-06T07:11:43;8.23;;;2.58;;
73100;SDS011;61288;53.446;-2.266;2022-07-06T07:14:08;9.80;;;2.80;;
73100;SDS011;61288;53.446;-2.266;2022-07-06T07:16:34;8.80;;;2.20;;
73100;SDS011;61288;53.446;-2.266;2022-07-06T07:19:00;5.97;;;2.15;;
73100;SDS011;61288;53.446;-2.266;2022-07-06T07:21:25;10.23;;;2.33;;
73100;SDS011;61288;53.446;-2.266;2022-07-06T07:23:57;8.13;;;2.03;;
73100;SDS011;61288;53.446;-2.266;2022-07-06T07:26:26;7.70;;;1.95;;
73100;SDS011;61288;53.446;-2.266;2022-07-06T07:28:54;6.00;;;1.95;;
73100;SDS011;61288;53.446;-2.266;2022-07-06T07:31:23;7.50;;;2.42;;
73100;SDS011;61288;53.446;-2.266;2022-07-06T07:33:50;7.68;;;1.80;;
73100;SDS011;61288;53.446;-2.266;2022-07-06T07:36:17;8.00;;;2.00;;
73100;SDS011;61288;53.446;-2.266;2022-07-06T07:38:42;8.20;;;2.10;;
73100;SDS011;61288;53.446;-2.266;2022-07-06T07:41:10;5.18;;;1.65;;
73100;SDS011;61288;53.446;-2.266;2022-07-06T07:43:39;6.85;;;1.80;;
73100;SDS011;61288;53.446;-2.266;2022-07-06T07:46:05;7.63;;;1.83;;
73100;SDS011;61288;53.446;-2.266;2022-07-06T07:48:32;9.50;;;1.90;;
73100;SDS011;61288;53.446;-2.266;2022-07-06T07:50:59;4.68;;;1.55;;
73100;SDS011;61288;53.446;-2.266;2022-07-06T07:53:24;5.47;;;1.40;;
73100;SDS011;61288;53.446;-2.266;2022-07-06T07:55:54;6.22;;;1.98;;
73100;SDS011;61288;53.446;-2.266;2022-07-06T07:58:19;6.15;;;1.48;;
73100;SDS011;61288;53.446;-2.266;2022-07-06T08:00:54;5.70;;;1.40;;
73100;SDS011;61288;53.446;-2.266;2022-07-06T08:03:25;3.53;;;1.35;;
73100;SDS011;61288;53.446;-2.266;2022-07-06T08:05:54;6.60;;;1.33;;
73100;SDS011;61288;53.446;-2.266;2022-07-06T08:08:20;5.18;;;1.40;;
73100;SDS011;61288;53.446;-2.266;2022-07-06T08:10:49;5.15;;;1.52;;
73100;SDS011;61288;53.446;-2.266;2022-07-06T08:13:14;5.03;;;1.58;;
73100;SDS011;61288;53.446;-2.266;2022-07-06T08:15:42;6.47;;;1.58;;
73100;SDS011;61288;53.446;-2.266;2022-07-06T08:18:07;4.30;;;1.45;;
73100;SDS011;61288;53.446;-2.266;2022-07-06T08:20:36;4.47;;;1.48;;
73100;SDS011;61288;53.446;-2.266;2022-07-06T08:23:02;3.35;;;1.35;;
73100;SDS011;61288;53.446;-2.266;2022-07-06T08:25:31;7.63;;;1.92;;
73100;SDS011;61288;53.446;-2.266;2022-07-06T08:27:57;4.45;;;1.48;;
73100;SDS011;61288;53.446;-2.266;2022-07-06T08:30:24;6.40;;;1.70;;
73100;SDS011;61288;53.446;-2.266;2022-07-06T08:32:49;7.07;;;1.48;;
73100;SDS011;61288;53.446;-2.266;2022-07-06T08:35:16;8.13;;;2.15;;
73100;SDS011;61288;53.446;-2.266;2022-07-06T08:37:42;8.88;;;1.65;;
73100;SDS011;61288;53.446;-2.266;2022-07-06T08:40:09;5.45;;;1.80;;
73100;SDS011;61288;53.446;-2.266;2022-07-06T08:42:35;8.57;;;1.88;;
73100;SDS011;61288;53.446;-2.266;2022-07-06T08:45:04;4.88;;;1.55;;
73100;SDS011;61288;53.446;-2.266;2022-07-06T08:50:01;5.43;;;1.50;;
73100;SDS011;61288;53.446;-2.266;2022-07-06T08:52:32;7.07;;;2.00;;
73100;SDS011;61288;53.446;-2.266;2022-07-06T08:54:59;7.63;;;2.00;;
73100;SDS011;61288;53.446;-2.266;2022-07-06T08:57:28;8.57;;;1.80;;
73100;SDS011;61288;53.446;-2.266;2022-07-06T08:59:56;7.82;;;1.90;;
73100;SDS011;61288;53.446;-2.266;2022-07-06T09:02:24;8.75;;;2.15;;
73100;SDS011;61288;53.446;-2.266;2022-07-06T09:04:54;7.15;;;1.98;;
73100;SDS011;61288;53.446;-2.266;2022-07-06T09:07:26;6.95;;;2.08;;
73100;SDS011;61288;53.446;-2.266;2022-07-06T09:09:58;6.97;;;2.00;;
73100;SDS011;61288;53.446;-2.266;2022-07-06T09:12:32;7.40;;;2.35;;
73100;SDS011;61288;53.446;-2.266;2022-07-06T09:15:08;9.60;;;2.53;;
73100;SDS011;61288;53.446;-2.266;2022-07-06T09:20:08;9.27;;;2.25;;
73100;SDS011;61288;53.446;-2.266;2022-07-06T09:22:40;8.18;;;2.22;;
73100;SDS011;61288;53.446;-2.266;2022-07-06T09:30:07;6.80;;;1.95;;
73100;SDS011;61288;53.446;-2.266;2022-07-06T09:32:40;10.27;;;2.17;;
73100;SDS011;61288;53.446;-2.266;2022-07-06T09:38:04;8.40;;;2.47;;
73100;SDS011;61288;53.446;-2.266;2022-07-06T09:40:41;7.93;;;2.35;;
73100;SDS011;61288;53.446;-2.266;2022-07-06T09:43:17;7.57;;;2.13;;
73100;SDS011;61288;53.446;-2.266;2022-07-06T09:45:56;5.63;;;1.60;;
73100;SDS011;61288;53.446;-2.266;2022-07-06T09:48:26;5.75;;;1.75;;
73100;SDS011;61288;53.446;-2.266;2022-07-06T09:51:00;9.93;;;2.20;;
73100;SDS011;61288;53.446;-2.266;2022-07-06T09:53:34;7.85;;;1.92;;
73100;SDS011;61288;53.446;-2.266;2022-07-06T09:56:12;7.80;;;1.65;;
73100;SDS011;61288;53.446;-2.266;2022-07-06T09:58:38;11.82;;;2.13;;
73100;SDS011;61288;53.446;-2.266;2022-07-06T10:01:05;7.88;;;1.95;;
73100;SDS011;61288;53.446;-2.266;2022-07-06T10:03:30;8.60;;;2.33;;
73100;SDS011;61288;53.446;-2.266;2022-07-06T10:06:04;8.93;;;2.10;;
73100;SDS011;61288;53.446;-2.266;2022-07-06T10:08:39;7.32;;;1.98;;
73100;SDS011;61288;53.446;-2.266;2022-07-06T10:11:07;7.78;;;2.42;;
73100;SDS011;61288;53.446;-2.266;2022-07-06T10:13:39;8.85;;;1.92;;
73100;SDS011;61288;53.446;-2.266;2022-07-06T10:16:07;8.80;;;2.25;;
73100;SDS011;61288;53.446;-2.266;2022-07-06T10:18:33;8.55;;;2.00;;
73100;SDS011;61288;53.446;-2.266;2022-07-06T10:20:59;8.68;;;2.00;;
73100;SDS011;61288;53.446;-2.266;2022-07-06T10:23:28;8.18;;;1.95;;
73100;SDS011;61288;53.446;-2.266;2022-07-06T10:25:55;8.02;;;2.10;;
73100;SDS011;61288;53.446;-2.266;2022-07-06T10:28:27;8.90;;;2.13;;
73100;SDS011;61288;53.446;-2.266;2022-07-06T10:30:53;8.30;;;1.80;;
73100;SDS011;61288;53.446;-2.266;2022-07-06T10:33:27;9.98;;;2.20;;
73100;SDS011;61288;53.446;-2.266;2022-07-06T10:35:52;8.48;;;2.03;;
73100;SDS011;61288;53.446;-2.266;2022-07-06T10:38:20;8.82;;;1.98;;
73100;SDS011;61288;53.446;-2.266;2022-07-06T10:41:09;9.40;;;2.10;;
73100;SDS011;61288;53.446;-2.266;2022-07-06T10:43:36;8.50;;;2.35;;
73100;SDS011;61288;53.446;-2.266;2022-07-06T10:46:14;9.93;;;2.30;;
73100;SDS011;61288;53.446;-2.266;2022-07-06T10:48:43;7.47;;;2.15;;
73100;SDS011;61288;53.446;-2.266;2022-07-06T10:51:23;9.13;;;1.92;;
73100;SDS011;61288;53.446;-2.266;2022-07-06T10:54:00;7.25;;;2.10;;
73100;SDS011;61288;53.446;-2.266;2022-07-06T10:56:33;9.55;;;2.00;;
73100;SDS011;61288;53.446;-2.266;2022-07-06T10:59:14;8.10;;;2.10;;
73100;SDS011;61288;53.446;-2.266;2022-07-06T11:04:47;7.47;;;2.00;;
73100;SDS011;61288;53.446;-2.266;2022-07-06T11:07:17;9.50;;;2.28;;
73100;SDS011;61288;53.446;-2.266;2022-07-06T11:10:00;8.90;;;2.20;;
73100;SDS011;61288;53.446;-2.266;2022-07-06T11:12:28;8.48;;;2.22;;
73100;SDS011;61288;53.446;-2.266;2022-07-06T11:14:55;8.63;;;2.00;;
73100;SDS011;61288;53.446;-2.266;2022-07-06T11:17:21;6.68;;;1.70;;
73100;SDS011;61288;53.446;-2.266;2022-07-06T11:22:38;8.38;;;1.90;;
73100;SDS011;61288;53.446;-2.266;2022-07-06T11:25:08;9.77;;;2.10;;
73100;SDS011;61288;53.446;-2.266;2022-07-06T11:27:34;8.07;;;1.83;;
73100;SDS011;61288;53.446;-2.266;2022-07-06T11:30:03;6.78;;;1.92;;
73100;SDS011;61288;53.446;-2.266;2022-07-06T11:32:32;6.45;;;1.83;;
73100;SDS011;61288;53.446;-2.266;2022-07-06T11:35:01;5.15;;;1.55;;
73100;SDS011;61288;53.446;-2.266;2022-07-06T11:37:29;9.52;;;1.70;;
73100;SDS011;61288;53.446;-2.266;2022-07-06T11:39:56;7.20;;;1.70;;
73100;SDS011;61288;53.446;-2.266;2022-07-06T11:42:25;6.65;;;1.80;;
73100;SDS011;61288;53.446;-2.266;2022-07-06T11:44:51;8.45;;;1.58;;
73100;SDS011;61288;53.446;-2.266;2022-07-06T11:47:29;8.45;;;1.67;;
73100;SDS011;61288;53.446;-2.266;2022-07-06T11:49:56;6.55;;;1.65;;
73100;SDS011;61288;53.446;-2.266;2022-07-06T11:52:23;6.32;;;1.60;;
73100;SDS011;61288;53.446;-2.266;2022-07-06T11:54:49;12.82;;;1.60;;
73100;SDS011;61288;53.446;-2.266;2022-07-06T11:57:28;7.88;;;1.40;;
73100;SDS011;61288;53.446;-2.266;2022-07-06T12:00:00;9.07;;;1.80;;
73100;SDS011;61288;53.446;-2.266;2022-07-06T12:02:26;6.15;;;1.60;;
73100;SDS011;61288;53.446;-2.266;2022-07-06T12:04:51;6.38;;;1.77;;
73100;SDS011;61288;53.446;-2.266;2022-07-06T12:07:18;6.90;;;1.58;;
73100;SDS011;61288;53.446;-2.266;2022-07-06T12:09:45;7.10;;;1.60;;
73100;SDS011;61288;53.446;-2.266;2022-07-06T12:12:14;6.43;;;1.40;;
73100;SDS011;61288;53.446;-2.266;2022-07-06T12:14:46;5.05;;;1.55;;
73100;SDS011;61288;53.446;-2.266;2022-07-06T12:17:21;6.00;;;1.67;;
73100;SDS011;61288;53.446;-2.266;2022-07-06T12:19:52;10.60;;;2.13;;
73100;SDS011;61288;53.446;-2.266;2022-07-06T12:22:28;8.15;;;1.90;;
73100;SDS011;61288;53.446;-2.266;2022-07-06T12:24:53;7.55;;;1.52;;
73100;SDS011;61288;53.446;-2.266;2022-07-06T12:27:23;6.40;;;1.70;;
73100;SDS011;61288;53.446;-2.266;2022-07-06T12:32:21;3.65;;;1.40;;
73100;SDS011;61288;53.446;-2.266;2022-07-06T12:35:04;9.40;;;1.63;;
73100;SDS011;61288;53.446;-2.266;2022-07-06T12:37:34;6.85;;;1.77;;
73100;SDS011;61288;53.446;-2.266;2022-07-06T12:40:01;4.32;;;1.67;;
73100;SDS011;61288;53.446;-2.266;2022-07-06T12:42:27;6.90;;;1.90;;
73100;SDS011;61288;53.446;-2.266;2022-07-06T12:44:53;6.60;;;1.63;;
73100;SDS011;61288;53.446;-2.266;2022-07-06T12:47:24;5.82;;;1.60;;
73100;SDS011;61288;53.446;-2.266;2022-07-06T12:52:36;7.68;;;2.33;;
73100;SDS011;61288;53.446;-2.266;2022-07-06T12:55:03;7.28;;;1.80;;
73100;SDS011;61288;53.446;-2.266;2022-07-06T12:57:50;8.52;;;2.05;;
73100;SDS011;61288;53.446;-2.266;2022-07-06T13:00:17;6.63;;;1.58;;
73100;SDS011;61288;53.446;-2.266;2022-07-06T13:02:49;5.40;;;1.63;;
73100;SDS011;61288;53.446;-2.266;2022-07-06T13:05:25;9.23;;;1.58;;
73100;SDS011;61288;53.446;-2.266;2022-07-06T13:07:55;9.48;;;1.67;;
73100;SDS011;61288;53.446;-2.266;2022-07-06T13:10:23;12.13;;;4.47;;
73100;SDS011;61288;53.446;-2.266;2022-07-06T13:12:52;8.40;;;2.08;;
73100;SDS011;61288;53.446;-2.266;2022-07-06T13:15:22;7.25;;;1.70;;
73100;SDS011;61288;53.446;-2.266;2022-07-06T13:17:48;7.70;;;1.42;;
73100;SDS011;61288;53.446;-2.266;2022-07-06T13:20:17;5.07;;;1.35;;
73100;SDS011;61288;53.446;-2.266;2022-07-06T13:22:44;4.88;;;1.50;;
73100;SDS011;61288;53.446;-2.266;2022-07-06T13:25:10;4.70;;;1.23;;
73100;SDS011;61288;53.446;-2.266;2022-07-06T13:27:42;4.63;;;1.38;;
73100;SDS011;61288;53.446;-2.266;2022-07-06T13:30:11;5.63;;;1.20;;
73100;SDS011;61288;53.446;-2.266;2022-07-06T13:32:38;3.63;;;1.42;;
73100;SDS011;61288;53.446;-2.266;2022-07-06T13:35:04;4.25;;;1.17;;
73100;SDS011;61288;53.446;-2.266;2022-07-06T13:37:31;5.05;;;1.05;;
73100;SDS011;61288;53.446;-2.266;2022-07-06T13:40:01;2.55;;;1.10;;
73100;SDS011;61288;53.446;-2.266;2022-07-06T13:42:28;3.15;;;1.17;;
73100;SDS011;61288;53.446;-2.266;2022-07-06T13:44:56;6.13;;;1.30;;
73100;SDS011;61288;53.446;-2.266;2022-07-06T13:47:23;3.55;;;1.30;;
73100;SDS011;61288;53.446;-2.266;2022-07-06T13:49:52;5.57;;;1.42;;
73100;SDS011;61288;53.446;-2.266;2022-07-06T13:52:32;4.22;;;1.27;;
73100;SDS011;61288;53.446;-2.266;2022-07-06T13:54:59;4.05;;;1.35;;
73100;SDS011;61288;53.446;-2.266;2022-07-06T13:57:24;5.13;;;1.25;;
73100;SDS011;61288;53.446;-2.266;2022-07-06T13:59:53;4.68;;;1.48;;
73100;SDS011;61288;53.446;-2.266;2022-07-06T14:02:19;4.45;;;1.38;;
73100;SDS011;61288;53.446;-2.266;2022-07-06T14:04:47;5.72;;;1.67;;
73100;SDS011;61288;53.446;-2.266;2022-07-06T14:07:17;6.55;;;1.40;;
73100;SDS011;61288;53.446;-2.266;2022-07-06T14:09:44;6.65;;;1.65;;
73100;SDS011;61288;53.446;-2.266;2022-07-06T14:12:15;4.75;;;1.55;;
73100;SDS011;61288;53.446;-2.266;2022-07-06T14:14:41;3.78;;;1.30;;
73100;SDS011;61288;53.446;-2.266;2022-07-06T14:17:06;3.30;;;1.23;;
73100;SDS011;61288;53.446;-2.266;2022-07-06T14:19:33;5.43;;;1.58;;
73100;SDS011;61288;53.446;-2.266;2022-07-06T14:22:03;3.22;;;1.17;;
73100;SDS011;61288;53.446;-2.266;2022-07-06T14:24:29;5.43;;;1.40;;
73100;SDS011;61288;53.446;-2.266;2022-07-06T14:26:57;5.05;;;1.30;;
73100;SDS011;61288;53.446;-2.266;2022-07-06T14:29:28;3.80;;;1.15;;
73100;SDS011;61288;53.446;-2.266;2022-07-06T14:32:00;4.07;;;1.35;;
73100;SDS011;61288;53.446;-2.266;2022-07-06T14:34:26;4.28;;;1.33;;
73100;SDS011;61288;53.446;-2.266;2022-07-06T14:36:54;4.90;;;1.33;;
73100;SDS011;61288;53.446;-2.266;2022-07-06T14:39:19;4.35;;;1.35;;
73100;SDS011;61288;53.446;-2.266;2022-07-06T14:41:46;3.67;;;1.40;;
73100;SDS011;61288;53.446;-2.266;2022-07-06T14:44:12;3.63;;;1.30;;
73100;SDS011;61288;53.446;-2.266;2022-07-06T14:46:43;3.53;;;1.10;;
73100;SDS011;61288;53.446;-2.266;2022-07-06T14:49:14;4.95;;;1.30;;
73100;SDS011;61288;53.446;-2.266;2022-07-06T14:51:39;2.45;;;1.00;;
73100;SDS011;61288;53.446;-2.266;2022-07-06T14:54:08;4.40;;;1.20;;
73100;SDS011;61288;53.446;-2.266;2022-07-06T14:56:35;3.50;;;1.25;;
73100;SDS011;61288;53.446;-2.266;2022-07-06T14:59:02;3.03;;;1.08;;
73100;SDS011;61288;53.446;-2.266;2022-07-06T15:01:28;5.20;;;1.58;;
73100;SDS011;61288;53.446;-2.266;2022-07-06T15:03:55;6.47;;;1.38;;
73100;SDS011;61288;53.446;-2.266;2022-07-06T15:06:20;5.30;;;1.20;;
73100;SDS011;61288;53.446;-2.266;2022-07-06T15:08:51;4.57;;;1.30;;
73100;SDS011;61288;53.446;-2.266;2022-07-06T15:11:16;5.75;;;1.13;;